createdAt,value
2018-09-21T00:00:10.355Z,25.40
2018-09-21T00:02:38.459Z,25.60
2018-09-21T00:05:06.767Z,25.70
2018-09-21T00:07:35.324Z,25.90
2018-09-21T00:10:03.440Z,25.80
2018-09-21T00:12:31.528Z,25.50
2018-09-21T00:14:59.623Z,25.50
2018-09-21T00:17:27.731Z,25.00
2018-09-21T00:19:56.095Z,25.30
2018-09-21T00:22:24.222Z,25.10
2018-09-21T00:24:53.008Z,25.20
2018-09-21T00:27:21.098Z,25.10
2018-09-21T00:29:49.503Z,25.20
2018-09-21T00:32:17.643Z,25.10
2018-09-21T00:34:45.738Z,24.90
2018-09-21T00:37:13.862Z,25.20
2018-09-21T00:39:42.194Z,24.90
2018-09-21T00:42:10.384Z,25.10
2018-09-21T00:44:38.679Z,25.10
2018-09-21T00:47:06.775Z,25.10
2018-09-21T00:49:35.112Z,25.10
2018-09-21T00:52:03.240Z,25.10
2018-09-21T00:54:31.426Z,25.30
2018-09-21T00:56:59.879Z,25.00
2018-09-21T00:59:27.976Z,25.10
2018-09-21T01:01:56.128Z,25.20
2018-09-21T01:04:24.725Z,25.10
2018-09-21T01:06:52.861Z,25.10
2018-09-21T01:09:21.368Z,24.90
2018-09-21T01:11:49.864Z,25.20
2018-09-21T01:14:17.989Z,25.30
2018-09-21T01:16:46.176Z,25.40
2018-09-21T01:19:14.337Z,25.30
2018-09-21T01:21:42.431Z,25.40
2018-09-21T01:24:10.550Z,25.00
2018-09-21T01:26:38.667Z,25.00
2018-09-21T01:29:06.796Z,25.20
2018-09-21T01:31:34.942Z,24.90
2018-09-21T01:34:03.074Z,24.50
2018-09-21T01:36:31.207Z,24.70
2018-09-21T01:38:59.303Z,24.90
2018-09-21T01:41:27.407Z,25.00
2018-09-21T01:43:55.565Z,25.00
2018-09-21T01:46:23.670Z,24.80
2018-09-21T01:48:51.799Z,24.80
2018-09-21T01:51:19.890Z,25.00
2018-09-21T01:53:48.053Z,25.00
2018-09-21T01:56:16.227Z,25.20
2018-09-21T01:58:44.614Z,24.90
2018-09-21T02:01:12.713Z,24.90
2018-09-21T02:03:40.813Z,25.10
2018-09-21T02:06:08.911Z,24.90
2018-09-21T02:08:37.034Z,24.70
2018-09-21T02:11:05.431Z,24.80
2018-09-21T02:13:33.545Z,25.00
2018-09-21T02:16:02.142Z,25.00
2018-09-21T02:18:30.695Z,24.80
2018-09-21T02:20:58.817Z,24.90
2018-09-21T02:23:26.927Z,24.90
2018-09-21T02:25:55.105Z,24.80
2018-09-21T02:28:23.572Z,24.90
2018-09-21T02:30:51.706Z,25.10
2018-09-21T02:33:20.060Z,25.00
2018-09-21T02:35:48.175Z,24.70
2018-09-21T02:38:16.310Z,24.60
2018-09-21T02:40:44.471Z,24.70
2018-09-21T02:43:12.867Z,24.50
2018-09-21T02:45:40.966Z,24.40
2018-09-21T02:48:09.075Z,24.40
2018-09-21T02:50:37.210Z,24.50
2018-09-21T02:53:05.742Z,24.30
2018-09-21T02:55:33.867Z,24.30
2018-09-21T02:58:02.274Z,24.30
2018-09-21T03:00:30.982Z,24.50
2018-09-21T03:02:59.218Z,24.70
2018-09-21T03:05:27.291Z,24.50
2018-09-21T03:07:55.383Z,24.60
2018-09-21T03:10:23.463Z,24.80
2018-09-21T03:12:51.773Z,24.90
2018-09-21T03:15:20.114Z,24.90
2018-09-21T03:17:48.206Z,24.90
2018-09-21T03:20:16.279Z,24.50
2018-09-21T03:22:44.501Z,24.50
2018-09-21T03:25:12.607Z,24.30
2018-09-21T03:27:40.732Z,24.80
2018-09-21T03:30:09.259Z,24.50
2018-09-21T03:32:37.344Z,24.10
2018-09-21T03:35:05.969Z,24.60
2018-09-21T03:37:33.997Z,24.40
2018-09-21T03:40:02.064Z,24.30
2018-09-21T03:42:30.143Z,24.20
2018-09-21T03:44:58.535Z,24.30
2018-09-21T03:47:26.610Z,24.40
2018-09-21T03:49:55.171Z,24.60
2018-09-21T03:52:23.247Z,24.70
2018-09-21T03:54:51.806Z,24.50
2018-09-21T03:57:20.311Z,24.30
2018-09-21T03:59:48.364Z,24.40
2018-09-21T04:02:16.487Z,24.40
2018-09-21T04:04:44.604Z,24.40
2018-09-21T04:07:12.775Z,24.40
2018-09-21T04:09:40.913Z,24.30
2018-09-21T04:12:20.564Z,24.00
2018-09-21T04:14:48.668Z,24.10
2018-09-21T04:17:16.811Z,24.40
2018-09-21T04:19:44.916Z,24.10
2018-09-21T04:22:13.058Z,24.30
2018-09-21T04:24:41.175Z,24.60
2018-09-21T04:27:09.340Z,24.30
2018-09-21T04:29:37.836Z,24.20
2018-09-21T04:32:05.959Z,24.50
2018-09-21T04:34:34.087Z,24.40
2018-09-21T04:37:02.222Z,24.60
2018-09-21T04:39:30.399Z,24.70
2018-09-21T04:41:58.503Z,24.40
2018-09-21T04:44:26.615Z,24.30
2018-09-21T04:46:54.736Z,24.70
2018-09-21T04:49:23.597Z,24.40
2018-09-21T04:51:51.929Z,24.70
2018-09-21T04:54:20.107Z,24.50
2018-09-21T04:56:48.478Z,24.30
2018-09-21T04:59:16.687Z,24.40
2018-09-21T05:01:44.795Z,24.70
2018-09-21T05:04:12.903Z,25.00
2018-09-21T05:06:41.383Z,25.00
2018-09-21T05:09:10.643Z,24.80
2018-09-21T05:11:38.748Z,24.70
2018-09-21T05:14:06.869Z,24.70
2018-09-21T05:16:35.074Z,25.00
2018-09-21T05:19:03.175Z,24.70
2018-09-21T05:21:31.286Z,25.00
2018-09-21T05:23:59.386Z,24.90
2018-09-21T05:26:27.533Z,24.80
2018-09-21T05:28:55.655Z,24.60
2018-09-21T05:31:23.783Z,24.60
2018-09-21T05:33:52.053Z,24.80
2018-09-21T05:36:20.173Z,24.50
2018-09-21T05:38:48.327Z,24.80
2018-09-21T05:41:16.444Z,24.80
2018-09-21T05:43:44.545Z,24.90
2018-09-21T05:46:12.660Z,24.90
2018-09-21T05:48:40.800Z,24.30
2018-09-21T05:51:08.919Z,24.50
2018-09-21T05:53:37.035Z,24.80
2018-09-21T05:56:05.212Z,24.50
2018-09-21T05:58:33.403Z,24.50
2018-09-21T06:01:01.528Z,24.40
2018-09-21T06:03:29.626Z,24.50
2018-09-21T06:05:57.724Z,24.90
2018-09-21T06:08:25.852Z,24.60
2018-09-21T06:10:54.096Z,24.70
2018-09-21T06:13:22.192Z,24.20
2018-09-21T06:15:50.291Z,24.40
2018-09-21T06:18:18.915Z,24.40
2018-09-21T06:20:47.032Z,24.40
2018-09-21T06:23:15.154Z,24.70
2018-09-21T06:25:43.315Z,24.60
2018-09-21T06:28:11.444Z,24.50
2018-09-21T06:30:39.555Z,24.30
2018-09-21T06:33:07.671Z,24.40
2018-09-21T06:35:35.792Z,24.30
2018-09-21T06:38:03.946Z,24.40
2018-09-21T06:40:32.061Z,24.40
2018-09-21T06:43:00.199Z,24.50
2018-09-21T06:45:28.571Z,24.40
2018-09-21T06:47:56.945Z,24.50
2018-09-21T06:50:25.351Z,24.40
2018-09-21T06:52:53.446Z,24.80
2018-09-21T06:55:21.560Z,24.60
2018-09-21T06:57:49.658Z,24.80
2018-09-21T07:00:17.793Z,24.50
2018-09-21T07:02:45.893Z,24.70
2018-09-21T07:05:17.151Z,24.70
2018-09-21T07:07:45.694Z,24.80
2018-09-21T07:10:14.275Z,24.80
2018-09-21T07:12:43.408Z,25.00
2018-09-21T07:15:11.792Z,25.10
2018-09-21T07:17:40.524Z,25.00
2018-09-21T07:20:08.607Z,24.50
2018-09-21T07:22:36.691Z,24.40
2018-09-21T07:25:05.169Z,24.40
2018-09-21T07:27:33.254Z,24.30
2018-09-21T07:30:01.319Z,24.60
2018-09-21T07:32:29.415Z,24.30
2018-09-21T07:34:57.530Z,24.30
2018-09-21T07:37:25.828Z,24.30
2018-09-21T07:39:53.989Z,24.50
2018-09-21T07:42:22.066Z,24.60
2018-09-21T07:44:50.166Z,24.60
2018-09-21T07:47:18.228Z,24.90
2018-09-21T07:49:46.320Z,25.10
2018-09-21T07:52:14.394Z,24.90
2018-09-21T07:54:42.675Z,24.80
2018-09-21T07:57:10.772Z,25.30
2018-09-21T07:59:38.837Z,24.80
2018-09-21T08:02:06.899Z,24.60
2018-09-21T08:04:34.976Z,24.50
2018-09-21T08:07:03.092Z,24.80
2018-09-21T08:09:31.154Z,24.70
2018-09-21T08:11:59.250Z,24.70
2018-09-21T08:14:27.552Z,24.70
2018-09-21T08:16:55.634Z,24.50
2018-09-21T08:19:23.867Z,25.00
2018-09-21T08:21:52.331Z,24.40
2018-09-21T08:24:20.396Z,24.10
2018-09-21T08:26:48.476Z,24.20
2018-09-21T08:29:16.670Z,24.60
2018-09-21T08:31:44.739Z,24.50
2018-09-21T08:34:12.841Z,24.80
2018-09-21T08:36:41.135Z,24.70
2018-09-21T08:39:09.819Z,24.70
2018-09-21T08:41:38.641Z,24.70
2018-09-21T08:44:06.815Z,25.10
2018-09-21T08:46:34.879Z,25.20
2018-09-21T08:49:02.991Z,25.50
2018-09-21T08:51:31.069Z,25.40
2018-09-21T08:53:59.134Z,25.60
2018-09-21T08:56:27.245Z,25.70
2018-09-21T08:58:55.313Z,25.70
2018-09-21T09:01:23.389Z,25.60
2018-09-21T09:03:52.419Z,25.00
2018-09-21T09:06:20.538Z,25.10
2018-09-21T09:08:48.623Z,24.80
2018-09-21T09:11:16.710Z,24.50
2018-09-21T09:13:44.790Z,23.90
2018-09-21T09:16:12.892Z,23.40
2018-09-21T09:18:41.002Z,22.40
2018-09-21T09:21:09.097Z,20.70
2018-09-21T09:23:37.191Z,20.30
2018-09-21T09:26:05.283Z,20.40
2018-09-21T09:28:33.609Z,20.30
2018-09-21T09:31:01.679Z,19.80
2018-09-21T09:33:29.744Z,18.50
2018-09-21T09:35:57.807Z,17.90
2018-09-21T09:38:25.876Z,18.00
2018-09-21T09:40:53.937Z,18.40
2018-09-21T09:43:22.049Z,18.20
2018-09-21T09:45:50.093Z,17.30
2018-09-21T09:48:18.179Z,17.90
2018-09-21T09:50:46.202Z,18.10
2018-09-21T09:53:14.264Z,18.00
2018-09-21T09:55:42.348Z,18.30
2018-09-21T09:58:10.406Z,18.70
2018-09-21T10:00:43.830Z,18.90
2018-09-21T10:03:11.915Z,18.40
2018-09-21T10:05:42.239Z,18.20
2018-09-21T10:08:11.231Z,18.60
2018-09-21T10:10:40.355Z,18.30
2018-09-21T10:13:08.662Z,18.50
2018-09-21T10:15:36.810Z,18.00
2018-09-21T10:18:05.163Z,18.20
2018-09-21T10:20:33.332Z,18.20
2018-09-21T10:23:01.463Z,18.70
2018-09-21T10:25:29.783Z,18.00
2018-09-21T10:27:58.043Z,18.30
2018-09-21T10:30:25.976Z,18.40
2018-09-21T10:32:54.078Z,18.30
2018-09-21T10:35:22.244Z,18.30
2018-09-21T10:37:50.319Z,17.90
2018-09-21T10:40:18.556Z,18.00
2018-09-21T10:42:46.563Z,17.70
2018-09-21T10:45:14.611Z,17.20
2018-09-21T10:47:42.744Z,17.80
2018-09-21T10:50:10.837Z,17.90
2018-09-21T10:52:38.965Z,17.80
2018-09-21T10:55:07.036Z,17.70
2018-09-21T10:57:35.130Z,17.90
2018-09-21T11:00:03.296Z,18.00
2018-09-21T11:02:31.432Z,18.00
2018-09-21T11:04:59.521Z,18.20
2018-09-21T11:07:27.622Z,18.50
2018-09-21T11:09:55.696Z,18.40
2018-09-21T11:12:23.776Z,18.50
2018-09-21T11:14:51.867Z,18.50
2018-09-21T11:17:20.011Z,18.90
2018-09-21T11:19:48.297Z,18.80
2018-09-21T11:22:16.366Z,18.30
2018-09-21T11:24:44.439Z,18.50
2018-09-21T11:27:12.509Z,18.70
2018-09-21T11:29:40.632Z,18.80
2018-09-21T11:32:08.710Z,18.90
2018-09-21T11:34:36.826Z,19.20
2018-09-21T11:37:04.923Z,19.30
2018-09-21T11:39:33.352Z,19.50
2018-09-21T11:42:01.440Z,19.60
2018-09-21T11:44:29.542Z,20.00
2018-09-21T11:46:57.749Z,20.20
2018-09-21T11:49:27.053Z,20.00
2018-09-21T11:51:55.119Z,20.40
2018-09-21T11:54:23.220Z,20.20
2018-09-21T11:56:51.319Z,19.80
2018-09-21T11:59:19.423Z,20.40
2018-09-21T12:01:47.530Z,20.70
2018-09-21T12:04:15.855Z,20.60
2018-09-21T12:06:44.088Z,20.60
2018-09-21T12:09:12.323Z,21.30
2018-09-21T12:11:40.600Z,21.50
2018-09-21T12:14:08.788Z,20.70
2018-09-21T12:16:36.863Z,21.00
2018-09-21T12:19:05.265Z,20.50
2018-09-21T12:21:33.430Z,20.30
2018-09-21T12:24:01.546Z,19.80
2018-09-21T12:26:29.671Z,20.30
2018-09-21T12:28:57.826Z,20.90
2018-09-21T12:31:26.068Z,20.20
2018-09-21T12:33:54.632Z,20.10
2018-09-21T12:36:22.887Z,20.50
2018-09-21T12:38:51.016Z,20.90
2018-09-21T12:41:19.172Z,20.80
2018-09-21T12:43:47.360Z,20.30
2018-09-21T12:46:20.027Z,20.70
2018-09-21T12:48:48.397Z,20.20
2018-09-21T12:51:16.473Z,20.90
2018-09-21T12:53:44.550Z,20.80
2018-09-21T12:56:12.634Z,20.80
2018-09-21T12:58:40.779Z,20.30
2018-09-21T13:01:08.819Z,19.90
2018-09-21T13:03:37.170Z,20.30
2018-09-21T13:06:06.126Z,20.10
2018-09-21T13:08:34.227Z,20.00
2018-09-21T13:11:02.327Z,20.30
2018-09-21T13:13:30.501Z,20.20
2018-09-21T13:15:59.343Z,20.50
2018-09-21T13:18:30.000Z,21.10
2018-09-21T13:20:58.162Z,21.30
2018-09-21T13:23:26.274Z,21.30
2018-09-21T13:25:54.397Z,21.30
2018-09-21T13:28:22.588Z,21.10
2018-09-21T13:30:50.691Z,21.40
2018-09-21T13:33:22.213Z,21.00
2018-09-21T13:35:50.447Z,21.00
2018-09-21T13:38:18.825Z,20.90
2018-09-21T13:40:47.511Z,21.20
2018-09-21T13:43:16.190Z,20.90
2018-09-21T13:45:45.241Z,20.90
2018-09-21T13:48:14.237Z,20.10
2018-09-21T13:50:43.013Z,20.60
2018-09-21T13:53:11.473Z,20.60
2018-09-21T13:55:39.651Z,20.90
2018-09-21T13:58:08.213Z,20.90
2018-09-21T14:00:36.482Z,20.90
2018-09-21T14:03:04.595Z,21.10
2018-09-21T14:05:32.737Z,20.80
2018-09-21T14:08:00.792Z,20.70
2018-09-21T14:10:28.880Z,20.50
2018-09-21T14:12:56.978Z,19.90
2018-09-21T14:15:26.547Z,20.30
2018-09-21T14:17:54.615Z,19.90
2018-09-21T14:20:22.794Z,20.30
2018-09-21T14:22:50.899Z,21.00
2018-09-21T14:25:19.103Z,21.10
2018-09-21T14:27:47.210Z,21.10
2018-09-21T14:30:15.606Z,21.30
2018-09-21T14:32:43.659Z,20.20
2018-09-21T14:35:11.747Z,20.10
2018-09-21T14:37:40.015Z,20.20
2018-09-21T14:40:08.414Z,20.90
2018-09-21T14:42:36.510Z,20.70
2018-09-21T14:45:04.881Z,21.20
2018-09-21T14:47:32.956Z,21.00
2018-09-21T14:50:01.114Z,20.80
2018-09-21T14:52:29.235Z,21.00
2018-09-21T14:54:57.317Z,20.80
2018-09-21T14:57:25.463Z,20.90
2018-09-21T14:59:53.647Z,20.60
2018-09-21T15:02:21.762Z,20.90
2018-09-21T15:04:49.885Z,20.10
2018-09-21T15:07:17.976Z,20.70
2018-09-21T15:09:46.043Z,20.90
2018-09-21T15:12:14.244Z,21.00
2018-09-21T15:14:42.345Z,21.10
2018-09-21T15:17:10.431Z,20.90
2018-09-21T15:19:38.538Z,21.40
2018-09-21T15:22:06.945Z,21.70
2018-09-21T15:24:34.895Z,22.10
2018-09-21T15:27:02.999Z,22.70
2018-09-21T15:29:31.091Z,22.90
2018-09-21T15:31:59.215Z,23.50
2018-09-21T15:34:27.341Z,24.10
2018-09-21T15:36:55.488Z,24.90
2018-09-21T15:39:23.553Z,24.40
2018-09-21T15:41:51.622Z,24.20
2018-09-21T15:44:19.718Z,23.90
2018-09-21T15:46:47.803Z,22.60
2018-09-21T15:49:15.987Z,23.00
2018-09-21T15:51:44.066Z,23.50
2018-09-21T15:54:12.279Z,23.30
2018-09-21T15:56:40.333Z,23.20
2018-09-21T15:59:08.478Z,21.20
2018-09-21T16:01:36.550Z,21.20
2018-09-21T16:04:04.626Z,20.90
2018-09-21T16:06:33.287Z,20.80
2018-09-21T16:09:02.746Z,20.40
2018-09-21T16:11:30.927Z,20.20
2018-09-21T16:14:05.230Z,20.20
2018-09-21T16:16:33.307Z,19.80
2018-09-21T16:19:01.592Z,19.40
2018-09-21T16:21:29.688Z,19.60
2018-09-21T16:23:57.810Z,19.50
2018-09-21T16:26:25.904Z,19.60
2018-09-21T16:28:54.007Z,19.90
2018-09-21T16:31:22.331Z,19.60
2018-09-21T16:33:50.868Z,19.80
2018-09-21T16:36:19.000Z,19.60
2018-09-21T16:38:47.019Z,20.10
2018-09-21T16:41:15.263Z,20.20
2018-09-21T16:43:43.659Z,20.00
2018-09-21T16:46:11.843Z,20.20
2018-09-21T16:48:39.928Z,20.30
2018-09-21T16:51:08.010Z,19.90
2018-09-21T16:53:36.070Z,20.00
2018-09-21T16:56:04.163Z,19.90
2018-09-21T16:58:32.553Z,19.30
2018-09-21T17:01:00.630Z,19.20
2018-09-21T17:03:28.860Z,19.30
2018-09-21T17:05:56.959Z,18.80
2018-09-21T17:08:25.076Z,18.90
2018-09-21T17:10:54.088Z,19.00
2018-09-21T17:13:22.208Z,19.50
2018-09-21T17:15:50.315Z,19.10
2018-09-21T17:18:18.439Z,19.60
2018-09-21T17:20:47.050Z,19.60
2018-09-21T17:23:15.135Z,19.20
2018-09-21T17:25:43.293Z,19.40
2018-09-21T17:28:12.037Z,19.20
2018-09-21T17:30:40.130Z,19.10
2018-09-21T17:33:08.231Z,19.20
2018-09-21T17:35:36.328Z,19.40
2018-09-21T17:38:04.418Z,19.10
2018-09-21T17:40:32.529Z,19.20
2018-09-21T17:43:01.030Z,19.30
2018-09-21T17:45:29.133Z,19.40
2018-09-21T17:47:57.235Z,19.20
2018-09-21T17:50:25.357Z,19.20
2018-09-21T17:52:55.080Z,18.70
2018-09-21T17:55:23.236Z,18.80
2018-09-21T17:57:51.358Z,19.00
2018-09-21T18:00:19.460Z,19.00
2018-09-21T18:02:47.657Z,18.80
2018-09-21T18:05:15.743Z,18.70
2018-09-21T18:07:44.248Z,18.60
2018-09-21T18:10:12.394Z,18.90
2018-09-21T18:12:40.576Z,18.70
2018-09-21T18:15:09.968Z,18.60
2018-09-21T18:17:38.104Z,18.40
2018-09-21T18:20:06.321Z,18.30
2018-09-21T18:22:34.446Z,18.80
2018-09-21T18:25:02.916Z,18.80
2018-09-21T18:27:33.611Z,19.30
2018-09-21T18:30:01.727Z,19.00
2018-09-21T18:32:29.856Z,18.80
2018-09-21T18:34:57.959Z,18.60
2018-09-21T18:37:26.120Z,18.50
2018-09-21T18:39:54.203Z,18.90
2018-09-21T18:42:22.766Z,18.60
2018-09-21T18:44:50.876Z,18.60
2018-09-21T18:47:19.388Z,18.80
2018-09-21T18:49:47.550Z,18.80
2018-09-21T18:52:15.652Z,19.00
2018-09-21T18:54:44.016Z,18.90
2018-09-21T18:57:12.205Z,19.10
2018-09-21T18:59:40.330Z,18.80
2018-09-21T19:02:10.982Z,18.30
2018-09-21T19:04:39.059Z,18.00
2018-09-21T19:07:12.638Z,18.40
2018-09-21T19:09:40.718Z,17.90
2018-09-21T19:12:08.818Z,18.00
2018-09-21T19:14:36.939Z,17.80
2018-09-21T19:17:05.027Z,18.10
2018-09-21T19:19:33.107Z,18.60
2018-09-21T19:22:01.409Z,18.00
2018-09-21T19:24:29.480Z,18.50
2018-09-21T19:26:57.546Z,18.80
2018-09-21T19:29:26.018Z,18.60
2018-09-21T19:31:54.175Z,18.90
2018-09-21T19:34:22.273Z,19.20
2018-09-21T19:36:50.329Z,19.20
2018-09-21T19:39:18.403Z,18.90
2018-09-21T19:41:46.471Z,18.80
2018-09-21T19:44:14.551Z,19.00
2018-09-21T19:46:42.638Z,18.90
2018-09-21T19:49:10.714Z,18.70
2018-09-21T19:51:38.956Z,18.50
2018-09-21T19:54:07.072Z,18.50
2018-09-21T19:56:35.157Z,18.20
2018-09-21T19:59:03.256Z,18.30
2018-09-21T20:01:31.362Z,18.30
2018-09-21T20:03:59.457Z,17.80
2018-09-21T20:06:27.624Z,18.00
2018-09-21T20:08:55.738Z,17.70
2018-09-21T20:11:23.882Z,17.60
2018-09-21T20:13:52.011Z,17.90
2018-09-21T20:16:20.171Z,17.70
2018-09-21T20:18:48.348Z,17.80
2018-09-21T20:21:16.435Z,18.10
2018-09-21T20:23:44.605Z,18.10
2018-09-21T20:26:12.779Z,18.00
2018-09-21T20:28:40.948Z,18.00
2018-09-21T20:31:14.621Z,17.90
2018-09-21T20:33:43.137Z,18.00
2018-09-21T20:36:11.251Z,18.00
2018-09-21T20:38:39.387Z,17.50
2018-09-21T20:41:07.503Z,17.60
2018-09-21T20:43:35.613Z,17.30
2018-09-21T20:46:03.713Z,17.70
2018-09-21T20:48:31.837Z,17.60
2018-09-21T20:50:59.932Z,17.80
2018-09-21T20:53:28.033Z,17.00
2018-09-21T20:55:56.119Z,17.50
2018-09-21T20:58:24.222Z,17.70
2018-09-21T21:00:52.311Z,17.50
2018-09-21T21:03:20.428Z,17.20
2018-09-21T21:05:48.543Z,17.30
2018-09-21T21:08:16.643Z,17.70
2018-09-21T21:10:45.238Z,17.80
2018-09-21T21:13:13.380Z,17.60
2018-09-21T21:15:41.849Z,17.30
2018-09-21T21:18:09.942Z,17.60
2018-09-21T21:20:38.070Z,17.20
2018-09-21T21:23:06.158Z,17.40
2018-09-21T21:25:34.419Z,17.30
2018-09-21T21:28:02.513Z,17.20
2018-09-21T21:30:30.638Z,17.20
2018-09-21T21:32:58.761Z,16.90
2018-09-21T21:35:26.886Z,17.00
2018-09-21T21:37:55.029Z,16.90
2018-09-21T21:40:23.158Z,16.80
2018-09-21T21:42:51.280Z,16.60
2018-09-21T21:45:19.436Z,16.90
2018-09-21T21:47:47.551Z,17.00
2018-09-21T21:50:15.670Z,16.80
2018-09-21T21:52:44.180Z,16.60
2018-09-21T21:55:12.299Z,16.80
2018-09-21T21:57:40.411Z,17.00
2018-09-21T22:00:09.311Z,17.10
2018-09-21T22:02:37.406Z,17.20
2018-09-21T22:05:05.913Z,17.20
2018-09-21T22:07:35.210Z,17.00
2018-09-21T22:10:04.621Z,16.80
2018-09-21T22:12:38.132Z,16.80
2018-09-21T22:15:10.611Z,16.90
2018-09-21T22:17:38.707Z,16.70
2018-09-21T22:20:06.814Z,16.70
2018-09-21T22:22:34.875Z,16.50
2018-09-21T22:25:03.045Z,16.60
2018-09-21T22:27:31.666Z,16.50
2018-09-21T22:29:59.826Z,16.90
2018-09-21T22:32:27.892Z,16.90
2018-09-21T22:34:55.984Z,16.70
2018-09-21T22:37:24.479Z,16.60
2018-09-21T22:39:52.570Z,16.40
2018-09-21T22:42:20.655Z,16.40
2018-09-21T22:44:48.822Z,16.60
2018-09-21T22:47:17.074Z,16.70
2018-09-21T22:49:45.187Z,16.70
2018-09-21T22:52:14.159Z,16.90
2018-09-21T22:54:42.356Z,16.60
2018-09-21T22:57:10.459Z,16.70
2018-09-21T22:59:38.792Z,16.90
2018-09-21T23:02:07.443Z,16.50
2018-09-21T23:04:35.621Z,16.50
2018-09-21T23:07:03.778Z,16.50
2018-09-21T23:14:26.408Z,16.10
2018-09-21T23:16:54.495Z,15.90
2018-09-21T23:19:22.820Z,15.90
2018-09-21T23:21:50.960Z,15.70
2018-09-21T23:24:19.051Z,15.70
2018-09-21T23:26:47.171Z,15.60
2018-09-21T23:29:15.292Z,15.50
2018-09-21T23:31:43.522Z,16.00
2018-09-21T23:34:11.678Z,16.30
2018-09-21T23:36:39.815Z,16.40
2018-09-21T23:39:09.046Z,16.10
2018-09-21T23:41:37.657Z,16.00
2018-09-21T23:44:05.950Z,15.30
2018-09-21T23:46:34.110Z,15.20
2018-09-21T23:49:02.441Z,15.40
2018-09-21T23:51:30.738Z,15.60
2018-09-21T23:53:58.890Z,16.10
2018-09-21T23:56:27.453Z,15.90
2018-09-21T23:58:55.569Z,15.80
